Terminal Aerodrome Forecast
Issued by NWS Caribou, ME

Home | Current Version | Previous Version | Text Only | Print | Product List | Glossary On
Versions: 1 2 3 4 5 6 7 8 9 10 11 12 13 14 15
000
FTUS41 KCAR 280900 AAA
TAFCAR
TAF AMD
KCAR 280908Z 2809/2906 17008KT P6SM OVC012
      TEMPO 2809/2812 5SM BR OVC004
     FM281800 14007KT P6SM -SHRA OVC025
     FM282300 12009KT 5SM -SHRA BR OVC020
     FM290200 12010KT 4SM -SHRA BR SCT008 OVC012=

USA.gov is the U.S. government's official web portal to all federal, state and local government web resources and services.